Terminal Aerodrome Forecast
Issued by NWS

Home | Current Version | Previous Version | Text Only | Print | Product List | Glossary On
Versions: 1 2 3 4 5 6 7 8 9 10 11 12 13 14 15
000
FTUS44 KLIX 222320
TAFMCB
TAF
KMCB 222320Z 2300/2324 00000KT P6SM SCT110
     FM230100 32006KT P6SM FEW015 SCT080
     FM231500 33010KT P6SM FEW140
     FM232300 32005KT P6SM FEW250=

USA.gov is the U.S. government's official web portal to all federal, state and local government web resources and services.